createdAt,value
2023-02-20T00:01:08.761Z,100426.94
2023-02-20T00:03:37.018Z,100431.36
2023-02-20T00:06:05.660Z,100434.60
2023-02-20T00:08:33.856Z,100425.83
2023-02-20T00:11:02.115Z,100422.34
2023-02-20T00:13:30.403Z,100422.02
2023-02-20T00:15:58.569Z,100415.82
2023-02-20T00:18:26.914Z,100411.45
2023-02-20T00:20:55.210Z,100405.23
2023-02-20T00:23:23.430Z,100405.42
2023-02-20T00:25:51.783Z,100401.25
2023-02-20T00:28:19.988Z,100406.66
2023-02-20T00:30:48.219Z,100410.27
2023-02-20T00:33:16.693Z,100404.22
2023-02-20T00:35:45.117Z,100408.60
2023-02-20T00:38:13.407Z,100405.59
2023-02-20T00:40:41.565Z,100406.95
2023-02-20T00:43:11.464Z,100400.90
2023-02-20T00:45:40.055Z,100405.31
2023-02-20T00:48:08.560Z,100415.10
2023-02-20T00:50:37.109Z,100414.23
2023-02-20T00:53:05.732Z,100415.02
2023-02-20T00:55:34.141Z,100419.19
2023-02-20T00:58:03.182Z,100414.79
2023-02-20T01:00:31.689Z,100411.71
2023-02-20T01:03:00.937Z,100414.41
2023-02-20T01:05:29.489Z,100411.19
2023-02-20T01:07:57.841Z,100403.77
2023-02-20T01:10:26.193Z,100404.59
2023-02-20T01:12:54.550Z,100410.67
2023-02-20T01:15:23.321Z,100411.13
2023-02-20T01:17:51.681Z,100405.48
2023-02-20T01:20:20.354Z,100404.09
2023-02-20T01:22:48.906Z,100409.96
2023-02-20T01:25:17.580Z,100404.65
2023-02-20T01:27:46.138Z,100397.30
2023-02-20T01:30:16.046Z,100391.67
2023-02-20T01:32:44.514Z,100387.41
2023-02-20T01:35:13.018Z,100385.55
2023-02-20T01:37:41.406Z,100387.58
2023-02-20T01:40:16.383Z,100389.42
2023-02-20T01:42:44.747Z,100388.81
2023-02-20T01:45:32.869Z,100390.02
2023-02-20T01:48:01.350Z,100391.38
2023-02-20T01:50:35.270Z,100392.91
2023-02-20T01:53:09.492Z,100388.34
2023-02-20T01:55:44.151Z,100384.64
2023-02-20T01:58:16.249Z,100379.94
2023-02-20T02:00:44.918Z,100371.50
2023-02-20T02:03:16.826Z,100375.41
2023-02-20T02:05:49.276Z,100376.30
2023-02-20T02:08:22.221Z,100376.01
2023-02-20T02:10:57.037Z,100379.41
2023-02-20T02:13:25.315Z,100381.29
2023-02-20T02:16:07.383Z,100374.55
2023-02-20T02:18:52.992Z,100371.69
2023-02-20T02:21:57.409Z,100362.24
2023-02-20T02:24:48.943Z,100362.45
2023-02-20T02:27:55.060Z,100365.68
2023-02-20T02:30:49.028Z,100373.14
2023-02-20T02:33:59.505Z,100365.71
2023-02-20T02:36:39.576Z,100376.55
2023-02-20T02:39:17.383Z,100373.02
2023-02-20T02:41:57.331Z,100370.16
2023-02-20T02:44:38.434Z,100360.91
2023-02-20T02:47:11.617Z,100361.59
2023-02-20T02:49:48.559Z,100362.75
2023-02-20T02:52:38.074Z,100369.16
2023-02-20T02:55:08.341Z,100375.23
2023-02-20T02:57:36.739Z,100372.67
2023-02-20T03:00:10.291Z,100368.98
2023-02-20T03:02:46.500Z,100372.38
2023-02-20T03:05:19.565Z,100366.80
2023-02-20T03:07:51.540Z,100364.31
2023-02-20T03:10:30.926Z,100363.86
2023-02-20T03:13:04.770Z,100365.55
2023-02-20T03:15:39.693Z,100367.73
2023-02-20T03:18:17.467Z,100366.39
2023-02-20T03:20:49.241Z,100364.22
2023-02-20T03:23:21.989Z,100363.88
2023-02-20T03:25:54.529Z,100359.98
2023-02-20T03:28:28.149Z,100358.75
2023-02-20T03:31:01.413Z,100356.88
2023-02-20T03:33:53.295Z,100356.55
2023-02-20T03:36:45.979Z,100353.98
2023-02-20T03:39:37.722Z,100352.77
2023-02-20T03:42:28.074Z,100355.55
2023-02-20T03:45:05.128Z,100357.53
2023-02-20T03:47:37.348Z,100357.16
2023-02-20T03:50:10.439Z,100354.39
2023-02-20T03:52:39.342Z,100357.20
2023-02-20T03:55:09.299Z,100352.95
2023-02-20T03:57:42.598Z,100350.23
2023-02-20T04:00:16.847Z,100348.52
2023-02-20T04:02:54.153Z,100348.97
2023-02-20T04:05:27.219Z,100352.48
2023-02-20T04:08:00.103Z,100354.98
2023-02-20T04:10:34.218Z,100356.99
2023-02-20T04:13:04.173Z,100351.95
2023-02-20T04:15:33.577Z,100351.97
2023-02-20T04:18:07.673Z,100348.41
2023-02-20T04:20:36.448Z,100341.67
2023-02-20T04:23:18.972Z,100334.77
2023-02-20T04:25:51.596Z,100336.94
2023-02-20T04:28:21.925Z,100335.03
2023-02-20T04:31:10.248Z,100337.36
2023-02-20T04:33:39.299Z,100331.94
2023-02-20T04:36:13.765Z,100328.70
2023-02-20T04:38:42.492Z,100330.05
2023-02-20T04:41:14.015Z,100321.57
2023-02-20T04:43:42.529Z,100315.31
2023-02-20T04:46:11.881Z,100312.76
2023-02-20T04:48:41.281Z,100309.04
2023-02-20T04:51:10.512Z,100301.77
2023-02-20T04:53:38.833Z,100300.08
2023-02-20T04:56:07.743Z,100297.90
2023-02-20T04:58:38.007Z,100303.50
2023-02-20T05:01:12.906Z,100301.15
2023-02-20T05:03:41.076Z,100296.59
2023-02-20T05:06:09.296Z,100295.76
2023-02-20T05:08:42.605Z,100289.68
2023-02-20T05:11:11.060Z,100289.70
2023-02-20T05:13:42.126Z,100283.15
2023-02-20T05:16:13.227Z,100275.60
2023-02-20T05:18:42.137Z,100269.55
2023-02-20T05:21:32.642Z,100271.00
2023-02-20T05:24:01.205Z,100270.67
2023-02-20T05:26:29.416Z,100265.62
2023-02-20T05:28:58.080Z,100270.70
2023-02-20T05:31:26.441Z,100268.04
2023-02-20T05:33:55.368Z,100269.78
2023-02-20T05:36:25.654Z,100275.80
2023-02-20T05:38:54.548Z,100280.58
2023-02-20T05:41:22.962Z,100281.50
2023-02-20T05:43:54.659Z,100277.99
2023-02-20T05:46:24.442Z,100264.70
2023-02-20T05:48:56.149Z,100256.98
2023-02-20T05:51:37.028Z,100245.20
2023-02-20T05:54:08.910Z,100240.18
2023-02-20T05:56:42.254Z,100245.73
2023-02-20T05:59:11.519Z,100247.95
2023-02-20T06:01:40.328Z,100245.10
2023-02-20T06:04:08.814Z,100240.24
2023-02-20T06:06:38.948Z,100235.55
2023-02-20T06:09:10.160Z,100234.21
2023-02-20T06:11:39.060Z,100239.81
2023-02-20T06:14:08.255Z,100236.48
2023-02-20T06:16:36.704Z,100236.41
2023-02-20T06:19:06.513Z,100229.91
2023-02-20T06:21:37.063Z,100223.07
2023-02-20T06:24:06.443Z,100223.30
2023-02-20T06:26:40.395Z,100219.48
2023-02-20T06:29:09.181Z,100217.39
2023-02-20T06:31:38.140Z,100210.54
2023-02-20T06:34:07.530Z,100215.16
2023-02-20T06:36:38.971Z,100214.56
2023-02-20T06:39:09.460Z,100212.60
2023-02-20T06:41:38.564Z,100206.06
2023-02-20T06:44:06.961Z,100201.36
2023-02-20T06:46:35.544Z,100203.28
2023-02-20T06:49:04.463Z,100207.71
2023-02-20T06:51:34.305Z,100206.25
2023-02-20T06:54:03.901Z,100203.48
2023-02-20T06:56:34.626Z,100190.03
2023-02-20T06:59:05.606Z,100188.26
2023-02-20T07:01:39.611Z,100187.87
2023-02-20T07:04:14.388Z,100192.36
2023-02-20T07:06:42.898Z,100191.46
2023-02-20T07:09:11.249Z,100194.11
2023-02-20T07:11:39.830Z,100192.05
2023-02-20T07:14:08.241Z,100184.77
2023-02-20T07:16:36.534Z,100174.94
2023-02-20T07:19:05.243Z,100174.11
2023-02-20T07:21:33.592Z,100175.82
2023-02-20T07:24:01.968Z,100173.41
2023-02-20T07:26:31.093Z,100171.13
2023-02-20T07:29:00.552Z,100174.27
2023-02-20T07:31:31.615Z,100175.88
2023-02-20T07:34:02.510Z,100163.42
2023-02-20T07:36:36.131Z,100166.21
2023-02-20T07:39:06.449Z,100172.73
2023-02-20T07:41:35.433Z,100168.94
2023-02-20T07:44:06.173Z,100175.77
2023-02-20T07:46:34.585Z,100172.93
2023-02-20T07:49:04.459Z,100166.13
2023-02-20T07:51:33.367Z,100157.83
2023-02-20T07:54:05.707Z,100142.09
2023-02-20T07:56:36.422Z,100131.98
2023-02-20T07:59:04.982Z,100133.20
2023-02-20T08:01:33.337Z,100124.45
2023-02-20T08:04:02.308Z,100118.90
2023-02-20T08:06:30.679Z,100112.33
2023-02-20T08:08:59.100Z,100104.26
2023-02-20T08:11:27.979Z,100092.60
2023-02-20T08:14:00.431Z,100089.41
2023-02-20T08:16:29.186Z,100093.88
2023-02-20T08:18:57.699Z,100089.33
2023-02-20T08:21:26.223Z,100082.39
2023-02-20T08:23:54.650Z,100081.92
2023-02-20T08:26:45.321Z,100078.01
2023-02-20T08:29:13.977Z,100069.86
2023-02-20T08:31:42.906Z,100062.05
2023-02-20T08:34:11.388Z,100054.23
2023-02-20T08:36:41.275Z,100048.64
2023-02-20T08:39:09.772Z,100043.02
2023-02-20T08:41:43.789Z,100046.56
2023-02-20T08:44:13.291Z,100042.14
2023-02-20T08:46:48.682Z,100035.83
2023-02-20T08:49:18.256Z,100040.04
2023-02-20T08:51:47.812Z,100037.79
2023-02-20T08:54:39.454Z,100037.24
2023-02-20T08:57:07.919Z,100029.01
2023-02-20T08:59:36.805Z,100025.91
2023-02-20T09:02:05.191Z,100017.40
2023-02-20T09:04:33.786Z,100008.20
2023-02-20T09:07:02.251Z,99997.50
2023-02-20T09:09:32.896Z,99990.69
2023-02-20T09:12:01.302Z,99983.70
2023-02-20T09:14:30.662Z,99973.01
2023-02-20T09:16:59.153Z,99965.34
2023-02-20T09:19:30.410Z,99958.37
2023-02-20T09:21:58.969Z,99948.48
2023-02-20T09:24:32.016Z,99934.36
2023-02-20T09:27:01.284Z,99937.16
2023-02-20T09:29:29.940Z,99926.75
2023-02-20T09:31:58.382Z,99917.38
2023-02-20T09:34:26.766Z,99902.93
2023-02-20T09:36:55.662Z,99895.11
2023-02-20T09:39:48.656Z,99882.20
2023-02-20T09:42:26.122Z,99870.31
2023-02-20T09:45:03.561Z,99857.75
2023-02-20T09:47:42.319Z,99860.92
2023-02-20T09:50:15.570Z,99853.59
2023-02-20T09:52:58.997Z,99841.03
2023-02-20T09:55:34.294Z,99827.64
2023-02-20T09:58:06.384Z,99817.97
2023-02-20T10:00:37.408Z,99811.52
2023-02-20T10:03:20.828Z,99808.10
2023-02-20T10:05:50.160Z,99808.08
2023-02-20T10:08:21.753Z,99794.18
2023-02-20T10:10:52.635Z,99784.20
2023-02-20T10:13:43.553Z,99785.71
2023-02-20T10:16:27.729Z,99776.25
2023-02-20T10:19:08.561Z,99768.80
2023-02-20T10:21:58.771Z,99759.00
2023-02-20T10:24:42.893Z,99758.33
2023-02-20T10:27:23.406Z,99753.42
2023-02-20T10:29:52.318Z,99744.64
2023-02-20T10:32:26.643Z,99741.95
2023-02-20T10:34:59.865Z,99738.58
2023-02-20T10:37:46.628Z,99724.39
2023-02-20T10:40:21.918Z,99718.48
2023-02-20T10:42:55.210Z,99715.48
2023-02-20T10:45:30.500Z,99703.98
2023-02-20T10:48:04.870Z,99700.25
2023-02-20T10:50:39.455Z,99702.95
2023-02-20T10:53:20.769Z,99691.77
2023-02-20T10:55:53.872Z,99683.48
2023-02-20T10:58:28.066Z,99676.38
2023-02-20T11:00:59.144Z,99670.30
2023-02-20T11:03:34.928Z,99658.65
2023-02-20T11:06:06.832Z,99651.73
2023-02-20T11:08:35.587Z,99648.84
2023-02-20T11:11:21.489Z,99639.72
2023-02-20T11:13:49.702Z,99643.07
2023-02-20T11:16:24.791Z,99630.20
2023-02-20T11:19:03.239Z,99617.33
2023-02-20T11:21:41.575Z,99582.17
2023-02-20T11:24:34.560Z,99542.44
2023-02-20T11:27:09.119Z,99487.68
2023-02-20T11:29:46.684Z,99527.50
2023-02-20T11:32:30.999Z,99501.33
2023-02-20T11:35:32.847Z,99508.08
2023-02-20T11:38:28.673Z,99464.52
2023-02-20T11:41:32.604Z,99477.52
2023-02-20T11:44:20.416Z,99474.33
2023-02-20T11:47:07.905Z,99443.28
2023-02-20T11:49:39.395Z,99422.20
2023-02-20T11:52:16.560Z,99413.09
2023-02-20T11:54:46.649Z,99399.79
2023-02-20T11:57:27.259Z,99393.38
2023-02-20T12:00:16.888Z,99395.42
2023-02-20T12:02:51.018Z,99383.27
2023-02-20T12:05:20.435Z,99367.08
2023-02-20T12:07:59.911Z,99348.86
2023-02-20T12:10:41.386Z,99332.65
2023-02-20T12:13:13.419Z,99304.62
2023-02-20T12:15:43.528Z,99291.80
2023-02-20T12:18:25.660Z,99284.70
2023-02-20T12:21:03.816Z,99292.15
2023-02-20T12:23:40.857Z,99300.27
2023-02-20T12:26:20.726Z,99304.83
2023-02-20T12:28:59.591Z,99297.23
2023-02-20T12:31:41.283Z,99301.64
2023-02-20T12:34:26.535Z,99282.86
2023-02-20T12:37:03.781Z,99275.93
2023-02-20T12:39:44.207Z,99286.59
2023-02-20T12:42:21.100Z,99298.42
2023-02-20T12:45:10.507Z,99295.88
2023-02-20T12:47:41.864Z,99293.16
2023-02-20T12:50:30.208Z,99285.89
2023-02-20T12:53:23.804Z,99298.05
2023-02-20T12:56:03.477Z,99283.50
2023-02-20T12:58:41.965Z,99287.05
2023-02-20T13:01:14.446Z,99281.61
2023-02-20T13:03:52.371Z,99284.98
2023-02-20T13:06:27.922Z,99287.01
2023-02-20T13:09:03.971Z,99297.15
2023-02-20T13:11:38.800Z,99275.98
2023-02-20T13:14:23.782Z,99284.10
2023-02-20T13:17:01.977Z,99276.97
2023-02-20T13:19:36.397Z,99259.35
2023-02-20T13:22:06.099Z,99262.36
2023-02-20T13:24:36.155Z,99252.17
2023-02-20T13:27:09.739Z,99246.73
2023-02-20T13:29:39.482Z,99257.52
2023-02-20T13:32:24.293Z,99248.02
2023-02-20T13:34:52.989Z,99237.45
2023-02-20T13:37:51.818Z,99221.16
2023-02-20T13:40:43.666Z,99215.02
2023-02-20T13:43:29.354Z,99215.99
2023-02-20T13:46:21.834Z,99195.95
2023-02-20T13:48:52.002Z,99198.11
2023-02-20T13:51:39.078Z,99189.09
2023-02-20T13:54:27.322Z,99177.88
2023-02-20T13:57:02.335Z,99172.41
2023-02-20T13:59:30.892Z,99171.02
2023-02-20T14:02:17.190Z,99185.57
2023-02-20T14:04:57.497Z,99193.33
2023-02-20T14:07:37.280Z,99179.73
2023-02-20T14:10:15.396Z,99174.80
2023-02-20T14:12:44.054Z,99173.25
2023-02-20T14:15:13.103Z,99163.55
2023-02-20T14:17:43.642Z,99166.77
2023-02-20T14:20:22.698Z,99161.14
2023-02-20T14:23:08.295Z,99159.05
2023-02-20T14:25:35.647Z,99145.45
2023-02-20T14:28:11.791Z,99141.36
2023-02-20T14:30:40.970Z,99144.23
2023-02-20T14:33:33.288Z,99135.38
2023-02-20T14:36:17.926Z,99140.27
2023-02-20T14:39:01.613Z,99144.30
2023-02-20T14:41:30.706Z,99128.98
2023-02-20T14:44:00.550Z,99112.14
2023-02-20T14:46:30.810Z,99110.38
2023-02-20T14:49:10.250Z,99105.09
2023-02-20T14:51:38.810Z,99095.36
2023-02-20T14:54:20.600Z,99111.45
2023-02-20T14:56:51.540Z,99113.77
2023-02-20T14:59:32.847Z,99103.34
2023-02-20T15:02:03.688Z,99085.83
2023-02-20T15:04:32.059Z,99088.98
2023-02-20T15:07:06.986Z,99097.24
2023-02-20T15:09:44.261Z,99103.50
2023-02-20T15:12:22.530Z,99080.34
2023-02-20T15:15:00.654Z,99071.64
2023-02-20T15:17:31.388Z,99076.52
2023-02-20T15:20:01.765Z,99084.81
2023-02-20T15:22:33.243Z,99071.19
2023-02-20T15:25:26.873Z,99076.23
2023-02-20T15:28:11.316Z,99076.21
2023-02-20T15:31:20.038Z,99063.27
2023-02-20T15:33:52.744Z,99056.61
2023-02-20T15:36:23.898Z,99056.94
2023-02-20T15:38:58.587Z,99051.30
2023-02-20T15:41:27.064Z,99065.37
2023-02-20T15:43:55.509Z,99071.64
2023-02-20T15:46:24.145Z,99073.30
2023-02-20T15:48:52.540Z,99075.48
2023-02-20T15:51:22.838Z,99063.58
2023-02-20T15:53:53.275Z,99055.73
2023-02-20T15:56:22.447Z,99048.23
2023-02-20T15:58:51.775Z,99050.73
2023-02-20T16:01:20.286Z,99047.14
2023-02-20T16:03:52.810Z,99042.86
2023-02-20T16:06:27.220Z,99033.31
2023-02-20T16:08:56.044Z,99020.20
2023-02-20T16:11:36.678Z,99015.89
2023-02-20T16:14:09.180Z,99017.23
2023-02-20T16:16:40.721Z,99023.65
2023-02-20T16:19:14.967Z,99026.00
2023-02-20T16:21:57.699Z,99031.90
2023-02-20T16:24:29.276Z,99022.20
2023-02-20T16:26:58.477Z,99016.54
2023-02-20T16:29:31.626Z,99017.70
2023-02-20T16:32:22.638Z,99011.70
2023-02-20T16:34:57.014Z,99000.61
2023-02-20T16:37:26.398Z,99014.34
2023-02-20T16:39:54.844Z,99007.33
2023-02-20T16:42:33.347Z,99005.77
2023-02-20T16:45:06.836Z,99003.05
2023-02-20T16:47:35.348Z,99008.43
2023-02-20T16:50:07.275Z,99008.91
2023-02-20T16:52:38.193Z,99010.80
2023-02-20T16:55:18.632Z,99012.98
2023-02-20T16:57:50.960Z,99003.49
2023-02-20T17:00:30.826Z,99004.04
2023-02-20T17:03:00.425Z,98996.94
2023-02-20T17:05:34.411Z,99001.90
2023-02-20T17:11:37.091Z,98999.28
2023-02-20T17:14:05.515Z,99000.48
2023-02-20T17:16:34.209Z,98994.58
2023-02-20T17:19:03.146Z,98994.09
2023-02-20T17:21:34.396Z,98985.11
2023-02-20T17:24:02.908Z,98987.68
2023-02-20T17:29:26.469Z,98979.58
2023-02-20T17:32:19.156Z,98984.02
2023-02-20T17:34:52.006Z,98980.29
2023-02-20T17:37:21.377Z,98978.45
2023-02-20T17:39:50.013Z,98972.34
2023-02-20T17:42:18.505Z,98976.09
2023-02-20T17:44:46.911Z,98965.88
2023-02-20T17:47:15.786Z,98967.40
2023-02-20T17:49:44.983Z,98950.59
2023-02-20T17:52:13.657Z,98948.02
2023-02-20T17:54:45.885Z,98950.05
2023-02-20T17:57:18.351Z,98951.91
2023-02-20T17:59:48.713Z,98956.67
2023-02-20T18:02:18.583Z,98955.48
2023-02-20T18:04:49.933Z,98949.70
2023-02-20T18:07:18.240Z,98950.21
2023-02-20T18:09:52.428Z,98942.94
2023-02-20T18:12:21.280Z,98950.88
2023-02-20T18:14:50.409Z,98951.40
2023-02-20T18:17:18.887Z,98957.86
2023-02-20T18:19:55.270Z,98961.44
2023-02-20T18:22:24.128Z,98956.36
2023-02-20T18:24:55.790Z,98948.05
2023-02-20T18:27:24.884Z,98954.84
2023-02-20T18:29:53.508Z,98941.26
2023-02-20T18:32:22.419Z,98950.10
2023-02-20T18:34:51.390Z,98938.39
2023-02-20T18:37:19.872Z,98943.13
2023-02-20T18:39:48.454Z,98938.05
2023-02-20T18:42:16.867Z,98930.92
2023-02-20T18:44:48.241Z,98933.83
2023-02-20T18:47:19.820Z,98933.48
2023-02-20T18:49:51.047Z,98935.54
2023-02-20T18:52:23.943Z,98936.23
2023-02-20T18:54:52.628Z,98939.44
2023-02-20T18:57:22.468Z,98946.57
2023-02-20T18:59:50.915Z,98947.06
2023-02-20T19:02:19.342Z,98945.55
2023-02-20T19:04:50.348Z,98943.02
2023-02-20T19:07:19.116Z,98947.73
2023-02-20T19:09:53.543Z,98942.63
2023-02-20T19:12:22.961Z,98947.02
2023-02-20T19:14:51.600Z,98945.15
2023-02-20T19:17:20.092Z,98940.04
2023-02-20T19:19:49.007Z,98940.35
2023-02-20T19:22:18.673Z,98943.70
2023-02-20T19:24:48.428Z,98936.05
2023-02-20T19:27:19.730Z,98942.50
2023-02-20T19:29:48.389Z,98945.72
2023-02-20T19:32:18.690Z,98945.38
2023-02-20T19:34:47.789Z,98945.36
2023-02-20T19:37:17.250Z,98933.27
2023-02-20T19:39:45.655Z,98933.58
2023-02-20T19:42:16.892Z,98942.56
2023-02-20T19:44:45.425Z,98946.80
2023-02-20T19:47:16.506Z,98938.43
2023-02-20T19:49:46.424Z,98929.04
2023-02-20T19:52:15.085Z,98927.13
2023-02-20T19:54:46.123Z,98928.30
2023-02-20T19:57:15.217Z,98927.94
2023-02-20T19:59:44.041Z,98925.54
2023-02-20T20:02:12.729Z,98923.14
2023-02-20T20:04:43.436Z,98911.38
2023-02-20T20:07:12.201Z,98913.41
2023-02-20T20:09:44.685Z,98909.65
2023-02-20T20:12:31.506Z,98907.42
2023-02-20T20:15:00.177Z,98912.17
2023-02-20T20:17:29.095Z,98912.65
2023-02-20T20:19:59.821Z,98913.14
2023-02-20T20:22:29.268Z,98908.00
2023-02-20T20:24:58.246Z,98916.34
2023-02-20T20:27:26.999Z,98915.81
2023-02-20T20:29:55.370Z,98913.62
2023-02-20T20:32:24.308Z,98915.83
2023-02-20T20:34:54.591Z,98913.77
2023-02-20T20:37:24.754Z,98923.98
2023-02-20T20:39:54.200Z,98924.30
2023-02-20T20:42:24.682Z,98924.48
2023-02-20T20:44:55.007Z,98931.79
2023-02-20T20:47:24.784Z,98938.41
2023-02-20T20:49:53.615Z,98943.16
2023-02-20T20:52:24.203Z,98938.90
2023-02-20T20:54:54.432Z,98938.73
2023-02-20T20:57:30.272Z,98935.00
2023-02-20T20:59:59.924Z,98928.15
2023-02-20T21:02:29.025Z,98926.80
2023-02-20T21:05:09.276Z,98928.12
2023-02-20T21:07:39.051Z,98936.08
2023-02-20T21:10:09.373Z,98935.67
2023-02-20T21:12:38.269Z,98931.73
2023-02-20T21:15:09.266Z,98934.75
2023-02-20T21:17:37.957Z,98940.02
2023-02-20T21:20:11.637Z,98952.57
2023-02-20T21:22:40.267Z,98949.98
2023-02-20T21:25:09.501Z,98943.30
2023-02-20T21:27:38.166Z,98945.83
2023-02-20T21:30:11.523Z,98940.85
2023-02-20T21:32:39.890Z,98942.05
2023-02-20T21:35:08.635Z,98936.22
2023-02-20T21:37:37.020Z,98939.64
2023-02-20T21:40:08.358Z,98938.27
2023-02-20T21:42:55.317Z,98942.54
2023-02-20T21:45:23.915Z,98938.13
2023-02-20T21:47:53.570Z,98938.48
2023-02-20T21:50:22.439Z,98932.05
2023-02-20T21:52:51.063Z,98932.29
2023-02-20T21:55:20.313Z,98928.40
2023-02-20T21:57:49.050Z,98928.08
2023-02-20T22:00:17.208Z,98926.25
2023-02-20T22:02:45.202Z,98917.82
2023-02-20T22:05:13.453Z,98920.59
2023-02-20T22:08:00.157Z,98923.83
2023-02-20T22:10:47.271Z,98920.59
2023-02-20T22:13:34.526Z,98931.48
2023-02-20T22:16:24.461Z,98935.55
2023-02-20T22:19:10.994Z,98934.86
2023-02-20T22:21:58.455Z,98935.90
2023-02-20T22:24:45.275Z,98936.73
2023-02-20T22:27:36.345Z,98938.06
2023-02-20T22:30:24.535Z,98938.91
2023-02-20T22:33:12.141Z,98938.04
2023-02-20T22:35:59.004Z,98941.40
2023-02-20T22:38:45.797Z,98938.48
2023-02-20T22:41:38.585Z,98941.86
2023-02-20T22:44:25.486Z,98935.54
2023-02-20T22:47:12.301Z,98942.15
2023-02-20T22:49:59.234Z,98935.33
2023-02-20T22:52:45.944Z,98934.13
2023-02-20T22:55:32.679Z,98939.73
2023-02-20T22:58:20.200Z,98941.06
2023-02-20T23:01:07.968Z,98937.65
2023-02-20T23:03:57.109Z,98936.31
2023-02-20T23:06:43.570Z,98934.30
2023-02-20T23:09:31.220Z,98939.06
2023-02-20T23:12:17.603Z,98940.27
2023-02-20T23:15:04.302Z,98943.18
2023-02-20T23:17:51.872Z,98950.54
2023-02-20T23:20:41.048Z,98953.80
2023-02-20T23:23:29.238Z,98953.16
2023-02-20T23:26:16.043Z,98959.83
2023-02-20T23:29:03.214Z,98969.03
2023-02-20T23:31:52.851Z,98960.56
2023-02-20T23:34:39.959Z,98959.61
2023-02-20T23:37:27.836Z,98961.55
2023-02-20T23:40:17.236Z,98968.91
2023-02-20T23:43:08.050Z,98965.05
2023-02-20T23:45:54.583Z,98967.99
2023-02-20T23:48:41.558Z,98957.88
2023-02-20T23:51:29.573Z,98959.80
2023-02-20T23:54:16.502Z,98955.41
2023-02-20T23:57:02.884Z,98955.27
2023-02-20T23:59:49.475Z,98946.28
